LiveATC.Net - Listen to live air traffic control over the Internet! Contact for advertising information

ICAO: CYOW  IATA: YOW   Airport: Ottawa MacDonald Cartier International Airport
City: Ottawa   State/Province: Ontario
Country: Canada   Continent: North America
CYOW METAR Weather: CYOW 280800Z 33013KT 15SM OVC016 M01/M04 A3034 RMK SC8 SLP280
CYOW Flight Activity (FlightAware)
CYOW Gnd/Twr/App
Feed Status: UP   Listeners: 2
Listen right in your browser - requires Flash (in browser, requires Flash)
Click here to listen with your own player (launches your MP3 player)
CYOW Gnd/Twr/App Audio Archives
De-Icing (Ice Man)122.350
De-Icing (Pad Control)122.925
Ottawa Ground121.900
Ottawa Terminal127.700
Ottawa Terminal (Arrivals)135.150
Ottawa Terminal (Departures)128.175
Ottawa Tower118.800
Ottawa Tower120.100


Unauthorized use prohibited. See Terms of Service

Find LiveATC Audio Streams

Airport/ARTCC Code

(e.g., 124.400, 128.75)
Site-wide search

Browse LiveATC Feeds
LiveATC Coverage Map
Top 50 LiveATC Feeds
Bad Weather Areas

Offer a LiveATC Feed
Press Inquiries

LiveATC on iPhone
LiveATC on Android

Windows Phone
Windows 8/10

LiveATC Mobile
(Mobile browser)

ATC Audio Archives
Interesting Recordings

LiveATC Forums

Home Page
Make a Donation
LiveATC Bookstore

Terms of Use
Privacy Policy

ATC/Radar Sites
U.S. ARTCC Freqs
Canadian Air Freqs


FAA Airport Status
Nat'l Airspace Status
Arrival Demand Charts

Server Software By:

Please make a donation to help us keep growing!